sensor_id;sensor_type;location;lat;lon;timestamp;P1;durP1;ratioP1;P2;durP2;ratioP2
54897;SDS011;40800;52.704;6.398;2023-04-25T00:01:14;38.00;;;34.67;;
54897;SDS011;40800;52.704;6.398;2023-04-25T00:03:39;39.63;;;35.63;;
54897;SDS011;40800;52.704;6.398;2023-04-25T00:06:05;37.75;;;34.28;;
54897;SDS011;40800;52.704;6.398;2023-04-25T00:08:31;38.88;;;34.60;;
54897;SDS011;40800;52.704;6.398;2023-04-25T00:10:57;39.50;;;35.55;;
54897;SDS011;40800;52.704;6.398;2023-04-25T00:13:23;39.13;;;35.08;;
54897;SDS011;40800;52.704;6.398;2023-04-25T00:18:17;37.70;;;34.30;;
54897;SDS011;40800;52.704;6.398;2023-04-25T00:20:43;38.58;;;34.85;;
54897;SDS011;40800;52.704;6.398;2023-04-25T00:23:12;38.78;;;35.10;;
54897;SDS011;40800;52.704;6.398;2023-04-25T00:25:42;38.70;;;35.03;;
54897;SDS011;40800;52.704;6.398;2023-04-25T00:28:11;37.95;;;34.55;;
54897;SDS011;40800;52.704;6.398;2023-04-25T00:30:37;37.08;;;33.63;;
54897;SDS011;40800;52.704;6.398;2023-04-25T00:33:03;38.90;;;35.20;;
54897;SDS011;40800;52.704;6.398;2023-04-25T00:35:29;37.00;;;33.67;;
54897;SDS011;40800;52.704;6.398;2023-04-25T00:37:54;37.05;;;33.78;;
54897;SDS011;40800;52.704;6.398;2023-04-25T00:40:20;37.28;;;33.58;;
54897;SDS011;40800;52.704;6.398;2023-04-25T00:42:46;38.53;;;34.08;;
54897;SDS011;40800;52.704;6.398;2023-04-25T00:45:13;38.97;;;35.53;;
54897;SDS011;40800;52.704;6.398;2023-04-25T00:47:40;38.60;;;34.65;;
54897;SDS011;40800;52.704;6.398;2023-04-25T00:50:07;37.58;;;33.75;;
54897;SDS011;40800;52.704;6.398;2023-04-25T00:52:33;36.95;;;33.65;;
54897;SDS011;40800;52.704;6.398;2023-04-25T00:54:59;37.85;;;34.17;;
54897;SDS011;40800;52.704;6.398;2023-04-25T00:57:24;35.22;;;32.03;;
54897;SDS011;40800;52.704;6.398;2023-04-25T00:59:51;36.33;;;32.97;;
54897;SDS011;40800;52.704;6.398;2023-04-25T01:02:17;38.10;;;34.33;;
54897;SDS011;40800;52.704;6.398;2023-04-25T01:04:45;38.42;;;35.10;;
54897;SDS011;40800;52.704;6.398;2023-04-25T01:07:12;36.83;;;33.75;;
54897;SDS011;40800;52.704;6.398;2023-04-25T01:09:38;37.70;;;34.25;;
54897;SDS011;40800;52.704;6.398;2023-04-25T01:12:04;36.72;;;33.47;;
54897;SDS011;40800;52.704;6.398;2023-04-25T01:14:29;36.50;;;33.42;;
54897;SDS011;40800;52.704;6.398;2023-04-25T01:16:55;37.03;;;33.85;;
54897;SDS011;40800;52.704;6.398;2023-04-25T01:19:21;37.50;;;34.42;;
54897;SDS011;40800;52.704;6.398;2023-04-25T01:21:47;40.92;;;37.00;;
54897;SDS011;40800;52.704;6.398;2023-04-25T01:24:13;38.65;;;35.17;;
54897;SDS011;40800;52.704;6.398;2023-04-25T01:26:39;37.13;;;34.08;;
54897;SDS011;40800;52.704;6.398;2023-04-25T01:29:09;38.50;;;34.92;;
54897;SDS011;40800;52.704;6.398;2023-04-25T01:31:35;38.22;;;34.75;;
54897;SDS011;40800;52.704;6.398;2023-04-25T01:34:01;37.05;;;33.88;;
54897;SDS011;40800;52.704;6.398;2023-04-25T01:36:27;37.95;;;34.42;;
54897;SDS011;40800;52.704;6.398;2023-04-25T01:38:53;38.35;;;35.17;;
54897;SDS011;40800;52.704;6.398;2023-04-25T01:41:20;37.20;;;33.65;;
54897;SDS011;40800;52.704;6.398;2023-04-25T01:43:48;37.22;;;34.00;;
54897;SDS011;40800;52.704;6.398;2023-04-25T01:46:13;37.65;;;34.60;;
54897;SDS011;40800;52.704;6.398;2023-04-25T01:48:39;38.53;;;35.10;;
54897;SDS011;40800;52.704;6.398;2023-04-25T01:51:04;39.33;;;35.67;;
54897;SDS011;40800;52.704;6.398;2023-04-25T01:53:30;40.80;;;36.75;;
54897;SDS011;40800;52.704;6.398;2023-04-25T01:55:55;40.22;;;36.83;;
54897;SDS011;40800;52.704;6.398;2023-04-25T01:58:21;37.53;;;34.58;;
54897;SDS011;40800;52.704;6.398;2023-04-25T02:00:46;38.92;;;35.78;;
54897;SDS011;40800;52.704;6.398;2023-04-25T02:03:12;37.92;;;34.63;;
54897;SDS011;40800;52.704;6.398;2023-04-25T02:05:38;37.60;;;34.53;;
54897;SDS011;40800;52.704;6.398;2023-04-25T02:08:08;39.00;;;35.67;;
54897;SDS011;40800;52.704;6.398;2023-04-25T02:10:34;39.40;;;36.15;;
54897;SDS011;40800;52.704;6.398;2023-04-25T02:13:00;40.05;;;36.80;;
54897;SDS011;40800;52.704;6.398;2023-04-25T02:15:26;37.72;;;34.75;;
54897;SDS011;40800;52.704;6.398;2023-04-25T02:17:52;37.78;;;34.75;;
54897;SDS011;40800;52.704;6.398;2023-04-25T02:20:18;37.05;;;33.50;;
54897;SDS011;40800;52.704;6.398;2023-04-25T02:22:45;37.30;;;33.92;;
54897;SDS011;40800;52.704;6.398;2023-04-25T02:25:11;36.47;;;33.25;;
54897;SDS011;40800;52.704;6.398;2023-04-25T02:27:37;38.15;;;35.00;;
54897;SDS011;40800;52.704;6.398;2023-04-25T02:30:03;38.78;;;35.45;;
54897;SDS011;40800;52.704;6.398;2023-04-25T02:34:55;37.15;;;33.35;;
54897;SDS011;40800;52.704;6.398;2023-04-25T02:37:23;35.83;;;32.78;;
54897;SDS011;40800;52.704;6.398;2023-04-25T02:39:49;35.95;;;32.75;;
54897;SDS011;40800;52.704;6.398;2023-04-25T02:42:14;35.05;;;32.05;;
54897;SDS011;40800;52.704;6.398;2023-04-25T02:44:40;34.97;;;32.40;;
54897;SDS011;40800;52.704;6.398;2023-04-25T02:47:06;36.17;;;33.28;;
54897;SDS011;40800;52.704;6.398;2023-04-25T02:49:31;35.30;;;32.72;;
54897;SDS011;40800;52.704;6.398;2023-04-25T02:51:57;36.42;;;33.13;;
54897;SDS011;40800;52.704;6.398;2023-04-25T02:54:23;36.35;;;33.45;;
54897;SDS011;40800;52.704;6.398;2023-04-25T02:56:49;35.03;;;32.15;;
54897;SDS011;40800;52.704;6.398;2023-04-25T02:59:14;36.28;;;33.13;;
54897;SDS011;40800;52.704;6.398;2023-04-25T03:01:40;35.95;;;32.88;;
54897;SDS011;40800;52.704;6.398;2023-04-25T03:04:06;37.17;;;33.88;;
54897;SDS011;40800;52.704;6.398;2023-04-25T03:06:31;35.42;;;32.35;;
54897;SDS011;40800;52.704;6.398;2023-04-25T03:08:57;35.45;;;32.67;;
54897;SDS011;40800;52.704;6.398;2023-04-25T03:11:23;35.05;;;32.15;;
54897;SDS011;40800;52.704;6.398;2023-04-25T03:13:50;35.15;;;32.28;;
54897;SDS011;40800;52.704;6.398;2023-04-25T03:16:15;35.13;;;32.42;;
54897;SDS011;40800;52.704;6.398;2023-04-25T03:18:41;35.47;;;32.40;;
54897;SDS011;40800;52.704;6.398;2023-04-25T03:21:07;35.38;;;32.67;;
54897;SDS011;40800;52.704;6.398;2023-04-25T03:23:32;34.95;;;31.98;;
54897;SDS011;40800;52.704;6.398;2023-04-25T03:25:58;34.47;;;32.15;;
54897;SDS011;40800;52.704;6.398;2023-04-25T03:28:24;35.22;;;32.30;;
54897;SDS011;40800;52.704;6.398;2023-04-25T03:30:50;35.13;;;32.00;;
54897;SDS011;40800;52.704;6.398;2023-04-25T03:33:15;35.40;;;32.22;;
54897;SDS011;40800;52.704;6.398;2023-04-25T03:35:41;34.88;;;32.30;;
54897;SDS011;40800;52.704;6.398;2023-04-25T03:38:07;36.13;;;32.93;;
54897;SDS011;40800;52.704;6.398;2023-04-25T03:40:33;35.53;;;32.38;;
54897;SDS011;40800;52.704;6.398;2023-04-25T03:42:58;34.97;;;32.15;;
54897;SDS011;40800;52.704;6.398;2023-04-25T03:45:24;34.38;;;31.58;;
54897;SDS011;40800;52.704;6.398;2023-04-25T03:47:50;35.15;;;31.73;;
54897;SDS011;40800;52.704;6.398;2023-04-25T03:50:15;34.90;;;31.98;;
54897;SDS011;40800;52.704;6.398;2023-04-25T03:52:41;34.90;;;32.03;;
54897;SDS011;40800;52.704;6.398;2023-04-25T03:55:07;35.80;;;32.70;;
54897;SDS011;40800;52.704;6.398;2023-04-25T03:57:33;33.92;;;31.25;;
54897;SDS011;40800;52.704;6.398;2023-04-25T03:59:59;33.60;;;31.00;;
54897;SDS011;40800;52.704;6.398;2023-04-25T04:02:25;33.92;;;31.25;;
54897;SDS011;40800;52.704;6.398;2023-04-25T04:04:50;33.78;;;30.80;;
54897;SDS011;40800;52.704;6.398;2023-04-25T04:07:16;34.40;;;31.52;;
54897;SDS011;40800;52.704;6.398;2023-04-25T04:09:41;32.65;;;30.00;;
54897;SDS011;40800;52.704;6.398;2023-04-25T04:12:07;33.38;;;30.65;;
54897;SDS011;40800;52.704;6.398;2023-04-25T04:14:32;34.20;;;31.38;;
54897;SDS011;40800;52.704;6.398;2023-04-25T04:16:58;31.73;;;29.25;;
54897;SDS011;40800;52.704;6.398;2023-04-25T04:19:23;31.38;;;28.98;;
54897;SDS011;40800;52.704;6.398;2023-04-25T04:21:49;31.23;;;28.80;;
54897;SDS011;40800;52.704;6.398;2023-04-25T04:24:14;32.22;;;29.92;;
54897;SDS011;40800;52.704;6.398;2023-04-25T04:26:41;32.05;;;29.80;;
54897;SDS011;40800;52.704;6.398;2023-04-25T04:29:09;31.45;;;29.33;;
54897;SDS011;40800;52.704;6.398;2023-04-25T04:31:35;32.45;;;29.95;;
54897;SDS011;40800;52.704;6.398;2023-04-25T04:34:01;35.88;;;32.80;;
54897;SDS011;40800;52.704;6.398;2023-04-25T04:36:28;36.63;;;33.83;;
54897;SDS011;40800;52.704;6.398;2023-04-25T04:38:54;31.42;;;29.20;;
54897;SDS011;40800;52.704;6.398;2023-04-25T04:41:21;32.75;;;30.08;;
54897;SDS011;40800;52.704;6.398;2023-04-25T04:43:47;32.78;;;30.42;;
54897;SDS011;40800;52.704;6.398;2023-04-25T04:46:12;33.33;;;30.77;;
54897;SDS011;40800;52.704;6.398;2023-04-25T04:48:38;33.40;;;30.80;;
54897;SDS011;40800;52.704;6.398;2023-04-25T04:51:05;32.85;;;30.23;;
54897;SDS011;40800;52.704;6.398;2023-04-25T04:53:31;32.80;;;30.27;;
54897;SDS011;40800;52.704;6.398;2023-04-25T04:55:57;32.85;;;30.23;;
54897;SDS011;40800;52.704;6.398;2023-04-25T04:58:22;33.08;;;30.52;;
54897;SDS011;40800;52.704;6.398;2023-04-25T05:00:48;32.13;;;29.83;;
54897;SDS011;40800;52.704;6.398;2023-04-25T05:03:14;32.25;;;29.95;;
54897;SDS011;40800;52.704;6.398;2023-04-25T05:05:40;32.80;;;30.52;;
54897;SDS011;40800;52.704;6.398;2023-04-25T05:08:06;32.42;;;29.85;;
54897;SDS011;40800;52.704;6.398;2023-04-25T05:10:32;32.25;;;30.05;;
54897;SDS011;40800;52.704;6.398;2023-04-25T05:12:57;30.35;;;28.45;;
54897;SDS011;40800;52.704;6.398;2023-04-25T05:15:23;31.35;;;29.25;;
54897;SDS011;40800;52.704;6.398;2023-04-25T05:17:48;31.80;;;29.50;;
54897;SDS011;40800;52.704;6.398;2023-04-25T05:20:14;31.95;;;29.50;;
54897;SDS011;40800;52.704;6.398;2023-04-25T05:22:40;33.30;;;30.70;;
54897;SDS011;40800;52.704;6.398;2023-04-25T05:25:06;32.58;;;30.17;;
54897;SDS011;40800;52.704;6.398;2023-04-25T05:27:33;32.00;;;30.10;;
54897;SDS011;40800;52.704;6.398;2023-04-25T05:29:59;31.98;;;29.42;;
54897;SDS011;40800;52.704;6.398;2023-04-25T05:32:24;32.00;;;29.75;;
54897;SDS011;40800;52.704;6.398;2023-04-25T05:34:51;31.45;;;29.42;;
54897;SDS011;40800;52.704;6.398;2023-04-25T05:37:17;31.33;;;29.13;;
54897;SDS011;40800;52.704;6.398;2023-04-25T05:39:42;31.52;;;29.50;;
54897;SDS011;40800;52.704;6.398;2023-04-25T05:42:08;32.03;;;29.73;;
54897;SDS011;40800;52.704;6.398;2023-04-25T05:44:33;31.00;;;29.20;;
54897;SDS011;40800;52.704;6.398;2023-04-25T05:46:59;31.38;;;29.13;;
54897;SDS011;40800;52.704;6.398;2023-04-25T05:49:24;31.65;;;29.50;;
54897;SDS011;40800;52.704;6.398;2023-04-25T05:51:50;32.10;;;29.58;;
54897;SDS011;40800;52.704;6.398;2023-04-25T05:54:16;30.77;;;28.52;;
54897;SDS011;40800;52.704;6.398;2023-04-25T05:56:41;31.00;;;28.83;;
54897;SDS011;40800;52.704;6.398;2023-04-25T05:59:07;31.45;;;29.27;;
54897;SDS011;40800;52.704;6.398;2023-04-25T06:01:32;30.08;;;27.88;;
54897;SDS011;40800;52.704;6.398;2023-04-25T06:03:58;29.55;;;27.52;;
54897;SDS011;40800;52.704;6.398;2023-04-25T06:06:23;30.15;;;27.77;;
54897;SDS011;40800;52.704;6.398;2023-04-25T06:08:49;30.13;;;27.77;;
54897;SDS011;40800;52.704;6.398;2023-04-25T06:11:15;29.55;;;27.30;;
54897;SDS011;40800;52.704;6.398;2023-04-25T06:13:41;28.65;;;26.48;;
54897;SDS011;40800;52.704;6.398;2023-04-25T06:16:06;27.67;;;25.88;;
54897;SDS011;40800;52.704;6.398;2023-04-25T06:18:32;28.98;;;26.67;;
54897;SDS011;40800;52.704;6.398;2023-04-25T06:20:58;26.80;;;24.90;;
54897;SDS011;40800;52.704;6.398;2023-04-25T06:23:23;26.25;;;24.05;;
54897;SDS011;40800;52.704;6.398;2023-04-25T06:25:49;25.30;;;23.65;;
54897;SDS011;40800;52.704;6.398;2023-04-25T06:28:14;24.65;;;22.83;;
54897;SDS011;40800;52.704;6.398;2023-04-25T06:30:40;24.92;;;22.85;;
54897;SDS011;40800;52.704;6.398;2023-04-25T06:33:05;24.60;;;22.77;;
54897;SDS011;40800;52.704;6.398;2023-04-25T06:35:33;22.75;;;20.98;;
54897;SDS011;40800;52.704;6.398;2023-04-25T06:37:59;21.75;;;20.10;;
54897;SDS011;40800;52.704;6.398;2023-04-25T06:40:24;20.38;;;18.70;;
54897;SDS011;40800;52.704;6.398;2023-04-25T06:42:50;19.75;;;18.15;;
54897;SDS011;40800;52.704;6.398;2023-04-25T06:45:16;20.02;;;18.30;;
54897;SDS011;40800;52.704;6.398;2023-04-25T06:47:41;19.77;;;18.27;;
54897;SDS011;40800;52.704;6.398;2023-04-25T06:50:08;20.17;;;18.50;;
54897;SDS011;40800;52.704;6.398;2023-04-25T06:52:34;18.60;;;17.20;;
54897;SDS011;40800;52.704;6.398;2023-04-25T06:54:59;17.48;;;16.08;;
54897;SDS011;40800;52.704;6.398;2023-04-25T06:57:25;18.70;;;17.05;;
54897;SDS011;40800;52.704;6.398;2023-04-25T06:59:50;18.05;;;16.75;;
54897;SDS011;40800;52.704;6.398;2023-04-25T07:02:16;16.40;;;15.10;;
54897;SDS011;40800;52.704;6.398;2023-04-25T07:04:41;17.60;;;16.00;;
54897;SDS011;40800;52.704;6.398;2023-04-25T07:07:07;16.95;;;15.38;;
54897;SDS011;40800;52.704;6.398;2023-04-25T07:09:33;17.10;;;15.30;;
54897;SDS011;40800;52.704;6.398;2023-04-25T07:11:59;17.08;;;15.57;;
54897;SDS011;40800;52.704;6.398;2023-04-25T07:16:52;17.25;;;15.60;;
54897;SDS011;40800;52.704;6.398;2023-04-25T07:19:17;15.35;;;13.80;;
54897;SDS011;40800;52.704;6.398;2023-04-25T07:21:43;16.30;;;14.73;;
54897;SDS011;40800;52.704;6.398;2023-04-25T07:24:08;15.98;;;13.68;;
54897;SDS011;40800;52.704;6.398;2023-04-25T07:26:34;14.82;;;13.38;;
54897;SDS011;40800;52.704;6.398;2023-04-25T07:29:00;14.23;;;12.80;;
54897;SDS011;40800;52.704;6.398;2023-04-25T07:31:25;13.93;;;12.57;;
54897;SDS011;40800;52.704;6.398;2023-04-25T07:33:51;15.45;;;13.85;;
54897;SDS011;40800;52.704;6.398;2023-04-25T07:36:17;15.68;;;14.00;;
54897;SDS011;40800;52.704;6.398;2023-04-25T07:38:42;14.43;;;13.25;;
54897;SDS011;40800;52.704;6.398;2023-04-25T07:41:08;14.90;;;13.10;;
54897;SDS011;40800;52.704;6.398;2023-04-25T07:43:33;14.80;;;13.00;;
54897;SDS011;40800;52.704;6.398;2023-04-25T07:45:59;13.00;;;11.90;;
54897;SDS011;40800;52.704;6.398;2023-04-25T07:48:24;14.38;;;10.77;;
54897;SDS011;40800;52.704;6.398;2023-04-25T07:50:50;15.70;;;10.75;;
54897;SDS011;40800;52.704;6.398;2023-04-25T07:53:16;11.00;;;9.90;;
54897;SDS011;40800;52.704;6.398;2023-04-25T07:55:42;10.02;;;9.13;;
54897;SDS011;40800;52.704;6.398;2023-04-25T07:58:08;11.93;;;9.30;;
54897;SDS011;40800;52.704;6.398;2023-04-25T08:00:35;11.70;;;9.67;;
54897;SDS011;40800;52.704;6.398;2023-04-25T08:03:01;11.23;;;9.17;;
54897;SDS011;40800;52.704;6.398;2023-04-25T08:05:27;11.98;;;9.23;;
54897;SDS011;40800;52.704;6.398;2023-04-25T08:07:53;9.52;;;8.52;;
54897;SDS011;40800;52.704;6.398;2023-04-25T08:10:19;12.00;;;9.10;;
54897;SDS011;40800;52.704;6.398;2023-04-25T08:12:45;10.35;;;8.00;;
54897;SDS011;40800;52.704;6.398;2023-04-25T08:15:11;9.05;;;7.50;;
54897;SDS011;40800;52.704;6.398;2023-04-25T08:17:38;8.98;;;7.70;;
54897;SDS011;40800;52.704;6.398;2023-04-25T08:20:04;8.52;;;7.30;;
54897;SDS011;40800;52.704;6.398;2023-04-25T08:22:30;8.40;;;7.70;;
54897;SDS011;40800;52.704;6.398;2023-04-25T08:24:56;8.43;;;7.47;;
54897;SDS011;40800;52.704;6.398;2023-04-25T08:27:21;8.38;;;7.38;;
54897;SDS011;40800;52.704;6.398;2023-04-25T08:29:47;9.10;;;7.60;;
54897;SDS011;40800;52.704;6.398;2023-04-25T08:32:12;8.73;;;8.02;;
54897;SDS011;40800;52.704;6.398;2023-04-25T08:34:39;8.75;;;7.93;;
54897;SDS011;40800;52.704;6.398;2023-04-25T08:37:07;8.95;;;8.15;;
54897;SDS011;40800;52.704;6.398;2023-04-25T08:39:34;9.63;;;8.73;;
54897;SDS011;40800;52.704;6.398;2023-04-25T08:42:00;9.90;;;9.13;;
54897;SDS011;40800;52.704;6.398;2023-04-25T08:44:31;9.02;;;8.30;;
54897;SDS011;40800;52.704;6.398;2023-04-25T08:46:58;9.80;;;9.00;;
54897;SDS011;40800;52.704;6.398;2023-04-25T08:49:25;9.48;;;8.68;;
54897;SDS011;40800;52.704;6.398;2023-04-25T08:51:51;8.90;;;8.10;;
54897;SDS011;40800;52.704;6.398;2023-04-25T08:54:18;8.40;;;7.70;;
54897;SDS011;40800;52.704;6.398;2023-04-25T08:56:49;8.20;;;7.32;;
54897;SDS011;40800;52.704;6.398;2023-04-25T08:59:15;7.78;;;6.90;;
54897;SDS011;40800;52.704;6.398;2023-04-25T09:01:42;7.95;;;7.07;;
54897;SDS011;40800;52.704;6.398;2023-04-25T09:04:08;7.97;;;7.28;;
54897;SDS011;40800;52.704;6.398;2023-04-25T09:06:33;8.13;;;7.43;;
54897;SDS011;40800;52.704;6.398;2023-04-25T09:09:06;6.78;;;6.10;;
54897;SDS011;40800;52.704;6.398;2023-04-25T09:11:33;7.70;;;6.20;;
54897;SDS011;40800;52.704;6.398;2023-04-25T09:14:10;9.65;;;5.90;;
54897;SDS011;40800;52.704;6.398;2023-04-25T09:19:24;8.02;;;6.00;;
54897;SDS011;40800;52.704;6.398;2023-04-25T09:21:50;8.55;;;5.75;;
54897;SDS011;40800;52.704;6.398;2023-04-25T09:26:57;6.95;;;5.88;;
54897;SDS011;40800;52.704;6.398;2023-04-25T09:29:33;7.78;;;5.00;;
54897;SDS011;40800;52.704;6.398;2023-04-25T09:34:47;4.65;;;3.85;;
54897;SDS011;40800;52.704;6.398;2023-04-25T09:37:18;6.78;;;1.90;;
54897;SDS011;40800;52.704;6.398;2023-04-25T09:39:48;7.72;;;2.03;;
54897;SDS011;40800;52.704;6.398;2023-04-25T09:42:15;5.28;;;1.75;;
54897;SDS011;40800;52.704;6.398;2023-04-25T09:44:45;5.80;;;1.77;;
54897;SDS011;40800;52.704;6.398;2023-04-25T09:47:14;5.53;;;1.90;;
54897;SDS011;40800;52.704;6.398;2023-04-25T09:49:42;7.55;;;2.03;;
54897;SDS011;40800;52.704;6.398;2023-04-25T09:52:09;6.23;;;2.00;;
54897;SDS011;40800;52.704;6.398;2023-04-25T09:54:42;5.63;;;2.10;;
54897;SDS011;40800;52.704;6.398;2023-04-25T09:57:12;8.02;;;2.08;;
54897;SDS011;40800;52.704;6.398;2023-04-25T09:59:41;9.73;;;2.03;;
54897;SDS011;40800;52.704;6.398;2023-04-25T10:02:10;6.75;;;2.22;;
54897;SDS011;40800;52.704;6.398;2023-04-25T10:04:37;6.47;;;2.20;;
54897;SDS011;40800;52.704;6.398;2023-04-25T10:07:05;5.90;;;2.00;;
54897;SDS011;40800;52.704;6.398;2023-04-25T10:09:32;6.07;;;2.28;;
54897;SDS011;40800;52.704;6.398;2023-04-25T10:12:01;5.95;;;1.80;;
54897;SDS011;40800;52.704;6.398;2023-04-25T10:14:29;5.35;;;2.15;;
54897;SDS011;40800;52.704;6.398;2023-04-25T10:16:56;4.88;;;1.75;;
54897;SDS011;40800;52.704;6.398;2023-04-25T10:19:23;4.55;;;1.80;;
54897;SDS011;40800;52.704;6.398;2023-04-25T10:24:23;6.93;;;1.80;;
54897;SDS011;40800;52.704;6.398;2023-04-25T10:26:50;8.85;;;2.33;;
54897;SDS011;40800;52.704;6.398;2023-04-25T10:29:23;8.20;;;2.47;;
54897;SDS011;40800;52.704;6.398;2023-04-25T10:31:49;8.45;;;2.40;;
54897;SDS011;40800;52.704;6.398;2023-04-25T10:34:16;7.45;;;2.00;;
54897;SDS011;40800;52.704;6.398;2023-04-25T10:36:42;5.95;;;2.00;;
54897;SDS011;40800;52.704;6.398;2023-04-25T10:39:08;9.13;;;2.75;;
54897;SDS011;40800;52.704;6.398;2023-04-25T10:41:46;6.25;;;2.13;;
54897;SDS011;40800;52.704;6.398;2023-04-25T10:44:16;6.50;;;2.10;;
54897;SDS011;40800;52.704;6.398;2023-04-25T10:46:42;7.20;;;2.65;;
54897;SDS011;40800;52.704;6.398;2023-04-25T10:49:09;10.02;;;2.47;;
54897;SDS011;40800;52.704;6.398;2023-04-25T10:51:35;6.38;;;2.20;;
54897;SDS011;40800;52.704;6.398;2023-04-25T10:54:02;6.80;;;2.05;;
54897;SDS011;40800;52.704;6.398;2023-04-25T10:56:32;8.90;;;2.10;;
54897;SDS011;40800;52.704;6.398;2023-04-25T10:59:07;6.93;;;2.13;;
54897;SDS011;40800;52.704;6.398;2023-04-25T11:01:46;5.60;;;2.10;;
54897;SDS011;40800;52.704;6.398;2023-04-25T11:07:09;4.68;;;2.00;;
54897;SDS011;40800;52.704;6.398;2023-04-25T11:09:56;5.95;;;2.10;;
54897;SDS011;40800;52.704;6.398;2023-04-25T11:12:25;6.07;;;2.38;;
54897;SDS011;40800;52.704;6.398;2023-04-25T11:14:57;5.07;;;1.90;;
54897;SDS011;40800;52.704;6.398;2023-04-25T11:17:27;6.28;;;1.95;;
54897;SDS011;40800;52.704;6.398;2023-04-25T11:19:53;3.97;;;1.80;;
54897;SDS011;40800;52.704;6.398;2023-04-25T11:22:19;4.23;;;1.80;;
54897;SDS011;40800;52.704;6.398;2023-04-25T11:24:46;6.45;;;2.03;;
54897;SDS011;40800;52.704;6.398;2023-04-25T11:27:12;9.40;;;2.15;;
54897;SDS011;40800;52.704;6.398;2023-04-25T11:29:38;6.72;;;2.13;;
54897;SDS011;40800;52.704;6.398;2023-04-25T11:32:03;5.43;;;2.03;;
54897;SDS011;40800;52.704;6.398;2023-04-25T11:34:29;7.07;;;2.40;;
54897;SDS011;40800;52.704;6.398;2023-04-25T11:36:56;8.07;;;2.10;;
54897;SDS011;40800;52.704;6.398;2023-04-25T11:39:23;8.65;;;2.47;;
54897;SDS011;40800;52.704;6.398;2023-04-25T11:41:49;5.60;;;2.00;;
54897;SDS011;40800;52.704;6.398;2023-04-25T11:44:16;4.95;;;1.92;;
54897;SDS011;40800;52.704;6.398;2023-04-25T11:46:42;5.75;;;1.90;;
54897;SDS011;40800;52.704;6.398;2023-04-25T11:49:08;6.05;;;1.98;;
54897;SDS011;40800;52.704;6.398;2023-04-25T11:51:41;6.68;;;1.90;;
54897;SDS011;40800;52.704;6.398;2023-04-25T11:54:08;5.88;;;1.83;;
54897;SDS011;40800;52.704;6.398;2023-04-25T11:56:34;6.45;;;1.90;;
54897;SDS011;40800;52.704;6.398;2023-04-25T11:59:02;6.47;;;1.90;;
54897;SDS011;40800;52.704;6.398;2023-04-25T12:01:29;5.30;;;2.00;;
54897;SDS011;40800;52.704;6.398;2023-04-25T12:03:57;5.75;;;1.73;;
54897;SDS011;40800;52.704;6.398;2023-04-25T12:06:26;5.82;;;1.60;;
54897;SDS011;40800;52.704;6.398;2023-04-25T12:11:26;4.70;;;1.73;;
54897;SDS011;40800;52.704;6.398;2023-04-25T12:13:52;6.60;;;1.90;;
54897;SDS011;40800;52.704;6.398;2023-04-25T12:16:18;6.07;;;1.70;;
54897;SDS011;40800;52.704;6.398;2023-04-25T12:18:44;8.77;;;2.30;;
54897;SDS011;40800;52.704;6.398;2023-04-25T12:21:10;9.02;;;1.92;;
54897;SDS011;40800;52.704;6.398;2023-04-25T12:23:38;7.45;;;2.25;;
54897;SDS011;40800;52.704;6.398;2023-04-25T12:26:04;6.25;;;1.92;;
54897;SDS011;40800;52.704;6.398;2023-04-25T12:28:32;5.72;;;2.15;;
54897;SDS011;40800;52.704;6.398;2023-04-25T12:31:04;8.43;;;2.10;;
54897;SDS011;40800;52.704;6.398;2023-04-25T12:33:35;7.05;;;2.00;;
54897;SDS011;40800;52.704;6.398;2023-04-25T12:36:02;5.38;;;1.83;;
54897;SDS011;40800;52.704;6.398;2023-04-25T12:38:37;7.32;;;2.05;;
54897;SDS011;40800;52.704;6.398;2023-04-25T12:41:04;6.60;;;2.22;;
54897;SDS011;40800;52.704;6.398;2023-04-25T12:43:30;7.83;;;2.20;;
54897;SDS011;40800;52.704;6.398;2023-04-25T12:45:56;7.18;;;2.28;;
54897;SDS011;40800;52.704;6.398;2023-04-25T12:48:21;7.55;;;2.58;;
54897;SDS011;40800;52.704;6.398;2023-04-25T12:50:48;7.50;;;2.20;;
54897;SDS011;40800;52.704;6.398;2023-04-25T12:53:16;4.70;;;1.70;;
54897;SDS011;40800;52.704;6.398;2023-04-25T12:55:41;4.90;;;2.10;;
54897;SDS011;40800;52.704;6.398;2023-04-25T12:58:07;5.45;;;1.92;;
54897;SDS011;40800;52.704;6.398;2023-04-25T13:00:33;7.07;;;2.30;;
54897;SDS011;40800;52.704;6.398;2023-04-25T13:02:58;8.77;;;2.35;;
54897;SDS011;40800;52.704;6.398;2023-04-25T13:05:24;5.65;;;2.03;;
54897;SDS011;40800;52.704;6.398;2023-04-25T13:07:50;8.15;;;2.28;;
54897;SDS011;40800;52.704;6.398;2023-04-25T13:10:16;6.72;;;2.13;;
54897;SDS011;40800;52.704;6.398;2023-04-25T13:12:42;5.90;;;1.95;;
54897;SDS011;40800;52.704;6.398;2023-04-25T13:15:08;6.82;;;2.22;;
54897;SDS011;40800;52.704;6.398;2023-04-25T13:17:36;5.03;;;2.25;;
54897;SDS011;40800;52.704;6.398;2023-04-25T13:20:03;7.45;;;2.25;;
54897;SDS011;40800;52.704;6.398;2023-04-25T13:22:34;7.20;;;2.28;;
54897;SDS011;40800;52.704;6.398;2023-04-25T13:25:04;7.32;;;2.10;;
54897;SDS011;40800;52.704;6.398;2023-04-25T13:27:31;10.10;;;2.42;;
54897;SDS011;40800;52.704;6.398;2023-04-25T13:29:58;8.50;;;2.92;;
54897;SDS011;40800;52.704;6.398;2023-04-25T13:32:25;8.00;;;2.40;;
54897;SDS011;40800;52.704;6.398;2023-04-25T13:34:51;7.15;;;2.13;;
54897;SDS011;40800;52.704;6.398;2023-04-25T13:37:16;7.72;;;2.35;;
54897;SDS011;40800;52.704;6.398;2023-04-25T13:39:42;6.60;;;2.25;;
54897;SDS011;40800;52.704;6.398;2023-04-25T13:42:07;7.28;;;2.42;;
54897;SDS011;40800;52.704;6.398;2023-04-25T13:44:33;7.22;;;2.60;;
54897;SDS011;40800;52.704;6.398;2023-04-25T13:46:58;8.45;;;2.20;;
54897;SDS011;40800;52.704;6.398;2023-04-25T13:49:25;7.03;;;2.25;;
54897;SDS011;40800;52.704;6.398;2023-04-25T13:51:51;9.32;;;2.58;;
54897;SDS011;40800;52.704;6.398;2023-04-25T13:54:16;7.93;;;2.45;;
54897;SDS011;40800;52.704;6.398;2023-04-25T13:56:42;8.55;;;2.40;;
54897;SDS011;40800;52.704;6.398;2023-04-25T13:59:08;6.90;;;2.25;;
54897;SDS011;40800;52.704;6.398;2023-04-25T14:01:33;6.05;;;1.90;;
54897;SDS011;40800;52.704;6.398;2023-04-25T14:04:00;4.30;;;1.80;;
54897;SDS011;40800;52.704;6.398;2023-04-25T14:06:26;6.53;;;1.80;;
54897;SDS011;40800;52.704;6.398;2023-04-25T14:08:53;3.53;;;1.40;;
54897;SDS011;40800;52.704;6.398;2023-04-25T14:11:19;4.47;;;1.77;;
54897;SDS011;40800;52.704;6.398;2023-04-25T14:13:45;6.20;;;1.70;;
54897;SDS011;40800;52.704;6.398;2023-04-25T14:16:11;4.80;;;1.80;;
54897;SDS011;40800;52.704;6.398;2023-04-25T14:18:36;4.85;;;1.90;;
54897;SDS011;40800;52.704;6.398;2023-04-25T14:21:02;5.88;;;1.83;;
54897;SDS011;40800;52.704;6.398;2023-04-25T14:23:27;5.00;;;1.65;;
54897;SDS011;40800;52.704;6.398;2023-04-25T14:25:53;7.35;;;2.20;;
54897;SDS011;40800;52.704;6.398;2023-04-25T14:28:19;4.70;;;1.70;;
54897;SDS011;40800;52.704;6.398;2023-04-25T14:30:45;6.30;;;2.00;;
54897;SDS011;40800;52.704;6.398;2023-04-25T14:33:10;5.00;;;2.08;;
54897;SDS011;40800;52.704;6.398;2023-04-25T14:35:36;5.30;;;2.10;;
54897;SDS011;40800;52.704;6.398;2023-04-25T14:38:02;6.53;;;1.98;;
54897;SDS011;40800;52.704;6.398;2023-04-25T14:40:28;5.05;;;1.70;;
54897;SDS011;40800;52.704;6.398;2023-04-25T14:42:53;3.72;;;1.52;;
54897;SDS011;40800;52.704;6.398;2023-04-25T14:45:19;4.60;;;1.75;;
54897;SDS011;40800;52.704;6.398;2023-04-25T14:47:44;7.65;;;2.03;;
54897;SDS011;40800;52.704;6.398;2023-04-25T14:50:10;6.22;;;1.80;;
54897;SDS011;40800;52.704;6.398;2023-04-25T14:52:36;8.18;;;2.00;;